Time;durP1;ratioP1;P1;durP2;ratioP2;P2;SDS_P1;SDS_P2;PMS_P1;PMS_P2;Temp;Humidity;BMP_temperature;BMP_pressure;BME280_temperature;BME280_humidity;BME280_pressure;Samples;Min_cycle;Max_cycle;Signal;HPM_P1;HPM_P2
2022/05/20 00:01:22;;;;;;;5.53;4.10;;;;;;;;;;5075807;28;20665;-84
2022/05/20 00:03:49;;;;;;;5.53;4.20;;;;;;;;;;5075313;28;20233;-84
2022/05/20 00:06:16;;;;;;;3.70;3.30;;;;;;;;;;5075775;28;20215;-85
2022/05/20 00:08:43;;;;;;;5.63;4.43;;;;;;;;;;5075179;28;20268;-84
2022/05/20 00:11:10;;;;;;;8.53;4.67;;;;;;;;;;5076200;28;20224;-84
2022/05/20 00:13:37;;;;;;;6.70;6.10;;;;;;;;;;5075153;28;20606;-84
2022/05/20 00:16:04;;;;;;;5.83;4.23;;;;;;;;;;5075465;28;20730;-84
2022/05/20 00:18:33;;;;;;;6.43;4.90;;;;;;;;;;5075042;28;20243;-84
2022/05/20 00:21:00;;;;;;;7.07;5.07;;;;;;;;;;5075376;28;20208;-84
2022/05/20 00:23:27;;;;;;;4.50;4.00;;;;;;;;;;5074592;28;20316;-84
2022/05/20 00:25:54;;;;;;;5.33;4.80;;;;;;;;;;5075443;28;20206;-84
2022/05/20 00:28:23;;;;;;;8.50;5.10;;;;;;;;;;5074904;28;20229;-84
2022/05/20 00:30:51;;;;;;;7.07;4.90;;;;;;;;;;5058416;28;20256;-84
2022/05/20 00:33:19;;;;;;;6.63;5.20;;;;;;;;;;5054442;28;20949;-84
2022/05/20 00:35:47;;;;;;;6.37;5.33;;;;;;;;;;5055585;28;20217;-84
2022/05/20 00:38:15;;;;;;;5.67;5.17;;;;;;;;;;5064049;28;20244;-84
2022/05/20 00:40:43;;;;;;;11.87;5.13;;;;;;;;;;5075102;28;20225;-84
2022/05/20 00:43:15;;;;;;;6.17;5.40;;;;;;;;;;5074627;28;20697;-84
2022/05/20 00:45:42;;;;;;;6.33;4.87;;;;;;;;;;5075137;28;20205;-84
2022/05/20 00:48:10;;;;;;;8.20;5.60;;;;;;;;;;5074756;28;20233;-84
2022/05/20 00:50:41;;;;;;;6.10;5.50;;;;;;;;;;5074978;28;20767;-84
2022/05/20 00:53:10;;;;;;;7.50;5.70;;;;;;;;;;5074677;28;20240;-84
2022/05/20 00:55:37;;;;;;;7.23;6.50;;;;;;;;;;5074865;28;20696;-84
2022/05/20 00:58:08;;;;;;;6.80;5.97;;;;;;;;;;5074648;28;20221;-83
2022/05/20 01:00:38;;;;;;;6.33;5.73;;;;;;;;;;5074782;28;20403;-84
2022/05/20 01:03:08;;;;;;;5.77;5.13;;;;;;;;;;5074361;28;20201;-84
2022/05/20 01:05:37;;;;;;;8.53;5.43;;;;;;;;;;5072916;28;20228;-84
2022/05/20 01:08:04;;;;;;;9.70;4.90;;;;;;;;;;5074366;28;20198;-84
2022/05/20 01:10:33;;;;;;;7.27;4.77;;;;;;;;;;5087086;23;20233;-85
2022/05/20 01:13:00;;;;;;;6.47;5.00;;;;;;;;;;5055466;28;20206;-83
2022/05/20 01:15:27;;;;;;;5.70;4.63;;;;;;;;;;5055685;28;20190;-84
2022/05/20 01:17:55;;;;;;;9.03;6.10;;;;;;;;;;5062671;28;20303;-84
2022/05/20 01:20:24;;;;;;;10.00;6.33;;;;;;;;;;5054560;28;20721;-84
2022/05/20 01:23:02;;;;;;;9.53;6.83;;;;;;;;;;5056462;28;20210;-84
2022/05/20 01:25:29;;;;;;;7.90;6.93;;;;;;;;;;5024029;28;20206;-85
2022/05/20 01:27:56;;;;;;;8.23;6.47;;;;;;;;;;5015798;28;20609;-84
2022/05/20 01:30:25;;;;;;;7.10;6.40;;;;;;;;;;5014964;28;20227;-84
2022/05/20 01:32:52;;;;;;;8.87;6.47;;;;;;;;;;5014197;28;20198;-84
2022/05/20 01:35:22;;;;;;;6.50;5.90;;;;;;;;;;5014256;28;20211;-84
2022/05/20 01:37:49;;;;;;;7.80;6.77;;;;;;;;;;5013357;28;20223;-84
2022/05/20 01:40:18;;;;;;;6.70;6.00;;;;;;;;;;5014678;28;20600;-84
2022/05/20 01:42:47;;;;;;;7.43;5.97;;;;;;;;;;5014403;28;20214;-84
2022/05/20 01:45:16;;;;;;;7.00;6.30;;;;;;;;;;5013934;28;20282;-84
2022/05/20 01:47:48;;;;;;;7.80;6.10;;;;;;;;;;5014622;28;20609;-84
2022/05/20 01:50:18;;;;;;;6.13;5.63;;;;;;;;;;5014109;28;20262;-84
2022/05/20 01:52:49;;;;;;;7.77;5.60;;;;;;;;;;5014558;28;20685;-84
2022/05/20 01:55:21;;;;;;;10.43;5.03;;;;;;;;;;5013906;28;20229;-84
2022/05/20 01:57:50;;;;;;;9.57;7.57;;;;;;;;;;5013386;28;20218;-84
2022/05/20 02:00:18;;;;;;;8.57;5.90;;;;;;;;;;5014624;28;20661;-84
2022/05/20 02:02:48;;;;;;;8.90;7.30;;;;;;;;;;5014241;28;20239;-84
2022/05/20 02:05:19;;;;;;;7.67;6.23;;;;;;;;;;5014115;28;20238;-84
2022/05/20 02:07:49;;;;;;;7.07;6.33;;;;;;;;;;5013124;28;20283;-84
2022/05/20 02:10:20;;;;;;;9.20;6.00;;;;;;;;;;5013262;28;20238;-84
2022/05/20 02:12:49;;;;;;;6.63;4.87;;;;;;;;;;5013136;28;20667;-84
2022/05/20 02:15:18;;;;;;;6.80;5.43;;;;;;;;;;5013431;28;20208;-84
2022/05/20 02:17:48;;;;;;;11.53;6.60;;;;;;;;;;5013186;28;20274;-83
2022/05/20 02:20:16;;;;;;;10.73;5.17;;;;;;;;;;5013617;28;20228;-82
2022/05/20 02:22:46;;;;;;;7.13;5.40;;;;;;;;;;5013358;28;20251;-83
2022/05/20 02:25:14;;;;;;;8.40;5.00;;;;;;;;;;5013323;28;20215;-85
2022/05/20 02:27:43;;;;;;;8.07;6.37;;;;;;;;;;5013571;28;20211;-82
2022/05/20 02:30:12;;;;;;;13.70;7.27;;;;;;;;;;5013030;28;20231;-83
2022/05/20 02:32:43;;;;;;;16.77;7.87;;;;;;;;;;5012866;28;20652;-83
2022/05/20 02:35:10;;;;;;;9.68;7.78;;;;;;;;;;5012770;28;20660;-83
2022/05/20 02:37:38;;;;;;;12.13;8.13;;;;;;;;;;5013072;28;20204;-82
2022/05/20 02:40:06;;;;;;;13.00;8.80;;;;;;;;;;5012453;28;20715;-82
2022/05/20 02:42:33;;;;;;;15.53;8.50;;;;;;;;;;5013015;28;20211;-83
2022/05/20 02:45:01;;;;;;;11.18;8.10;;;;;;;;;;5012407;28;20755;-83
2022/05/20 02:47:31;;;;;;;10.40;7.80;;;;;;;;;;5013175;28;20215;-82
2022/05/20 02:49:58;;;;;;;10.97;8.53;;;;;;;;;;5012906;28;20293;-81
2022/05/20 02:52:25;;;;;;;8.85;7.05;;;;;;;;;;5012931;28;20215;-81
2022/05/20 02:54:52;;;;;;;8.63;7.83;;;;;;;;;;5012831;28;20243;-81
2022/05/20 02:57:19;;;;;;;8.77;7.45;;;;;;;;;;5013090;28;20210;-81
2022/05/20 03:05:18;;;;;;;9.63;7.93;;;;;;;;;;5012211;28;20302;-81
2022/05/20 03:07:45;;;;;;;9.87;8.00;;;;;;;;;;5012419;28;20207;-81
2022/05/20 03:10:12;;;;;;;12.50;9.00;;;;;;;;;;5012382;28;20246;-82
2022/05/20 03:12:40;;;;;;;9.33;8.43;;;;;;;;;;5012840;28;20214;-81
2022/05/20 03:15:08;;;;;;;10.77;8.97;;;;;;;;;;5011954;28;20234;-81
2022/05/20 03:17:36;;;;;;;12.57;8.10;;;;;;;;;;5012966;28;20211;-81
2022/05/20 03:20:03;;;;;;;10.07;8.47;;;;;;;;;;5011944;28;20246;-81
2022/05/20 03:22:30;;;;;;;13.30;9.27;;;;;;;;;;5012569;28;20211;-81
2022/05/20 03:24:57;;;;;;;13.27;8.97;;;;;;;;;;5011384;28;20231;-81
2022/05/20 03:27:24;;;;;;;11.07;9.07;;;;;;;;;;5012557;28;20683;-82
2022/05/20 03:29:51;;;;;;;10.47;9.13;;;;;;;;;;5012006;28;20239;-82
2022/05/20 03:32:18;;;;;;;12.80;9.00;;;;;;;;;;5030672;28;20214;-81
2022/05/20 03:34:47;;;;;;;11.77;9.03;;;;;;;;;;5031875;28;20376;-82
2022/05/20 03:37:14;;;;;;;12.10;9.17;;;;;;;;;;5021364;28;20204;-82
2022/05/20 03:39:41;;;;;;;11.17;8.60;;;;;;;;;;5017764;28;20226;-82
2022/05/20 03:42:08;;;;;;;12.33;8.70;;;;;;;;;;5032677;28;20221;-82
2022/05/20 03:44:35;;;;;;;9.70;7.93;;;;;;;;;;5031728;28;20231;-82
2022/05/20 03:47:02;;;;;;;11.30;8.13;;;;;;;;;;5017194;28;20214;-82
2022/05/20 03:49:30;;;;;;;13.70;9.10;;;;;;;;;;5024936;28;20616;-82
2022/05/20 03:51:58;;;;;;;15.97;8.50;;;;;;;;;;5024462;28;20203;-84
2022/05/20 03:54:27;;;;;;;11.83;9.03;;;;;;;;;;5031601;28;20249;-81
2022/05/20 03:56:54;;;;;;;10.70;7.97;;;;;;;;;;5032662;28;20242;-81
2022/05/20 03:59:21;;;;;;;10.10;9.00;;;;;;;;;;5032413;28;20312;-82
2022/05/20 04:01:57;;;;;;;12.47;9.37;;;;;;;;;;5028664;28;20207;-81
2022/05/20 04:04:26;;;;;;;9.37;8.20;;;;;;;;;;5013162;28;20350;-83
2022/05/20 04:06:53;;;;;;;10.37;9.07;;;;;;;;;;5017840;28;20675;-83
2022/05/20 04:09:21;;;;;;;10.77;8.90;;;;;;;;;;5012164;28;20707;-83
2022/05/20 04:11:49;;;;;;;10.70;8.53;;;;;;;;;;5023740;28;20213;-80
2022/05/20 04:14:16;;;;;;;12.93;9.67;;;;;;;;;;5022959;28;20269;-81
2022/05/20 04:16:43;;;;;;;9.90;8.13;;;;;;;;;;5023354;28;20211;-81
2022/05/20 04:19:11;;;;;;;10.63;9.10;;;;;;;;;;5029886;28;20234;-81
2022/05/20 04:21:39;;;;;;;11.37;8.17;;;;;;;;;;5026055;28;20238;-81
2022/05/20 04:24:06;;;;;;;9.03;8.07;;;;;;;;;;5029823;28;20598;-81
2022/05/20 04:26:34;;;;;;;14.23;9.90;;;;;;;;;;5025235;28;20210;-79
2022/05/20 04:29:01;;;;;;;18.63;10.20;;;;;;;;;;5022995;28;20227;-80
2022/05/20 04:31:29;;;;;;;13.47;9.20;;;;;;;;;;5017106;28;20230;-79
2022/05/20 04:33:56;;;;;;;15.93;10.53;;;;;;;;;;5011878;28;20227;-79
2022/05/20 04:36:23;;;;;;;17.43;10.87;;;;;;;;;;5030466;28;20221;-79
2022/05/20 04:38:50;;;;;;;11.80;9.83;;;;;;;;;;5030960;28;20238;-80
2022/05/20 04:47:00;;;;;;;13.30;11.27;;;;;;;;;;5031100;28;20202;-79
2022/05/20 04:49:27;;;;;;;15.50;12.07;;;;;;;;;;5015110;28;20235;-79
2022/05/20 04:51:54;;;;;;;16.57;13.43;;;;;;;;;;5015861;28;20207;-79
2022/05/20 04:57:07;;;;;;;16.40;12.93;;;;;;;;;;5015446;28;20326;-79
2022/05/20 04:59:36;;;;;;;15.10;12.97;;;;;;;;;;5027996;28;20234;-79
2022/05/20 05:02:04;;;;;;;17.57;14.10;;;;;;;;;;5016612;28;20207;-79
2022/05/20 05:04:31;;;;;;;21.50;14.00;;;;;;;;;;5016243;28;20227;-79
2022/05/20 05:06:59;;;;;;;17.07;14.47;;;;;;;;;;5016365;28;20318;-79
2022/05/20 05:09:26;;;;;;;16.70;15.03;;;;;;;;;;5015217;28;20238;-80
2022/05/20 05:11:53;;;;;;;20.00;16.47;;;;;;;;;;5015743;28;20299;-82
2022/05/20 05:14:20;;;;;;;23.20;18.47;;;;;;;;;;5015286;28;20239;-81
2022/05/20 05:16:49;;;;;;;22.80;17.90;;;;;;;;;;5016167;28;20262;-80
2022/05/20 05:19:16;;;;;;;23.20;18.63;;;;;;;;;;5015034;28;20234;-80
2022/05/20 05:21:43;;;;;;;21.80;18.97;;;;;;;;;;5015545;28;20199;-79
2022/05/20 05:24:10;;;;;;;25.80;18.13;;;;;;;;;;5015373;28;20235;-79
2022/05/20 05:26:40;;;;;;;21.93;17.43;;;;;;;;;;5016541;28;20199;-79
2022/05/20 05:29:07;;;;;;;21.03;16.80;;;;;;;;;;5014902;28;20585;-79
2022/05/20 05:31:34;;;;;;;21.50;17.13;;;;;;;;;;5016198;28;20200;-79
2022/05/20 05:34:03;;;;;;;19.77;17.53;;;;;;;;;;5014393;28;20231;-80
2022/05/20 05:36:30;;;;;;;22.80;17.57;;;;;;;;;;5016344;28;20317;-80
2022/05/20 05:38:57;;;;;;;24.40;18.07;;;;;;;;;;5015162;28;20242;-80
2022/05/20 05:41:24;;;;;;;24.00;18.20;;;;;;;;;;5016025;28;20222;-80
2022/05/20 05:43:52;;;;;;;21.27;17.10;;;;;;;;;;5016405;28;20227;-80
2022/05/20 05:46:19;;;;;;;21.43;15.13;;;;;;;;;;5014869;28;20211;-80
2022/05/20 05:48:46;;;;;;;21.17;15.50;;;;;;;;;;5015317;28;20233;-80
2022/05/20 05:51:15;;;;;;;19.20;16.37;;;;;;;;;;5024880;28;20709;-81
2022/05/20 05:53:42;;;;;;;21.77;14.53;;;;;;;;;;5032419;28;20227;-82
2022/05/20 05:56:09;;;;;;;14.20;11.50;;;;;;;;;;5023206;28;20232;-80
2022/05/20 05:58:37;;;;;;;12.77;11.47;;;;;;;;;;5024108;28;20230;-80
2022/05/20 06:01:04;;;;;;;15.23;12.15;;;;;;;;;;5030282;28;20660;-81
2022/05/20 06:03:31;;;;;;;12.38;11.07;;;;;;;;;;5013730;28;20239;-81
2022/05/20 06:05:59;;;;;;;16.37;14.13;;;;;;;;;;5025899;28;20822;-81
2022/05/20 06:08:27;;;;;;;14.77;13.03;;;;;;;;;;5032649;28;20249;-81
2022/05/20 06:10:54;;;;;;;15.10;12.67;;;;;;;;;;5012667;28;20231;-81
2022/05/20 06:13:25;;;;;;;13.23;11.83;;;;;;;;;;5012464;28;20263;-81
2022/05/20 06:15:52;;;;;;;14.02;12.57;;;;;;;;;;5031801;28;20191;-81
2022/05/20 06:18:19;;;;;;;15.35;13.35;;;;;;;;;;5027065;28;20230;-81
2022/05/20 06:20:46;;;;;;;13.57;10.75;;;;;;;;;;5022301;28;20224;-82
2022/05/20 06:23:13;;;;;;;16.65;14.90;;;;;;;;;;5019376;28;20231;-82
2022/05/20 06:25:42;;;;;;;17.08;15.02;;;;;;;;;;5016001;28;20211;-81
2022/05/20 06:28:10;;;;;;;17.73;15.95;;;;;;;;;;5034663;28;20294;-82
2022/05/20 06:30:38;;;;;;;14.90;13.40;;;;;;;;;;5032963;28;20705;-81
2022/05/20 06:33:05;;;;;;;15.68;13.65;;;;;;;;;;5028452;28;20242;-82
2022/05/20 06:41:06;;;;;;;13.43;12.13;;;;;;;;;;5034432;28;20233;-82
2022/05/20 06:43:33;;;;;;;14.45;13.10;;;;;;;;;;5035210;28;20297;-81
2022/05/20 06:46:02;;;;;;;12.05;10.80;;;;;;;;;;5033980;28;20211;-82
2022/05/20 06:48:37;;;;;;;11.43;9.63;;;;;;;;;;5034062;28;20289;-82
2022/05/20 06:51:05;;;;;;;11.15;7.82;;;;;;;;;;5034138;28;20234;-85
2022/05/20 06:53:32;;;;;;;9.85;8.93;;;;;;;;;;5032493;28;20230;-83
2022/05/20 06:55:59;;;;;;;12.05;9.52;;;;;;;;;;5032045;28;20213;-83
2022/05/20 06:58:28;;;;;;;9.13;8.20;;;;;;;;;;5013436;28;20231;-82
2022/05/20 07:00:55;;;;;;;9.35;7.72;;;;;;;;;;5023102;28;20233;-83
2022/05/20 07:03:22;;;;;;;7.75;6.95;;;;;;;;;;5011996;28;20239;-83
2022/05/20 07:05:50;;;;;;;6.80;6.10;;;;;;;;;;5018604;28;20219;-83
2022/05/20 07:08:17;;;;;;;6.13;5.60;;;;;;;;;;5014555;28;20259;-83
2022/05/20 07:10:44;;;;;;;8.35;5.78;;;;;;;;;;5017732;28;20235;-83
2022/05/20 07:13:11;;;;;;;7.25;6.55;;;;;;;;;;5030335;28;20289;-83
2022/05/20 07:15:39;;;;;;;6.50;5.90;;;;;;;;;;5027005;28;20206;-83
2022/05/20 07:18:07;;;;;;;7.10;6.20;;;;;;;;;;5012624;28;20231;-82
2022/05/20 07:20:34;;;;;;;6.05;5.50;;;;;;;;;;5013038;28;20325;-83
2022/05/20 07:23:01;;;;;;;8.02;6.00;;;;;;;;;;5011667;28;20212;-83
2022/05/20 07:25:28;;;;;;;6.35;5.65;;;;;;;;;;5011895;28;20222;-84
2022/05/20 07:27:59;;;;;;;5.78;5.20;;;;;;;;;;5017885;28;20198;-83
2022/05/20 07:30:26;;;;;;;6.43;5.53;;;;;;;;;;5032249;28;20305;-84
2022/05/20 07:32:55;;;;;;;8.43;5.25;;;;;;;;;;5031359;28;20213;-83
2022/05/20 07:35:22;;;;;;;7.65;5.03;;;;;;;;;;5031132;28;20222;-84
2022/05/20 07:37:50;;;;;;;7.22;5.72;;;;;;;;;;5026182;28;20203;-84
2022/05/20 07:40:17;;;;;;;6.43;5.30;;;;;;;;;;5020066;28;20256;-84
2022/05/20 07:42:44;;;;;;;6.85;5.43;;;;;;;;;;5031312;28;20211;-83
2022/05/20 07:45:12;;;;;;;7.80;5.63;;;;;;;;;;5015972;28;20695;-84
2022/05/20 07:47:39;;;;;;;5.70;4.93;;;;;;;;;;5011216;28;20301;-83
2022/05/20 07:50:08;;;;;;;9.15;5.43;;;;;;;;;;5011344;28;20234;-83
2022/05/20 07:55:23;;;;;;;5.50;5.00;;;;;;;;;;5011191;28;20230;-85
2022/05/20 07:57:51;;;;;;;6.03;5.43;;;;;;;;;;5021394;28;20628;-85
2022/05/20 08:00:18;;;;;;;6.15;4.38;;;;;;;;;;5042186;28;20230;-86
2022/05/20 08:02:45;;;;;;;6.00;5.07;;;;;;;;;;5042356;28;20198;-85
2022/05/20 08:05:13;;;;;;;4.97;4.47;;;;;;;;;;5035000;28;20191;-85
2022/05/20 08:07:42;;;;;;;6.93;5.22;;;;;;;;;;5031983;28;20222;-86
2022/05/20 08:10:11;;;;;;;8.82;4.90;;;;;;;;;;5030924;28;20237;-85
2022/05/20 08:12:38;;;;;;;5.55;5.05;;;;;;;;;;5012280;28;20242;-86
2022/05/20 08:15:06;;;;;;;5.30;4.78;;;;;;;;;;5012529;28;20239;-85
2022/05/20 08:17:36;;;;;;;7.50;4.70;;;;;;;;;;5013748;28;20620;-85
2022/05/20 08:20:07;;;;;;;5.97;4.40;;;;;;;;;;5013301;28;20239;-85
2022/05/20 08:22:36;;;;;;;6.15;4.90;;;;;;;;;;5017455;28;20199;-85
2022/05/20 08:25:04;;;;;;;5.63;4.95;;;;;;;;;;5033511;28;20238;-86
2022/05/20 08:27:32;;;;;;;4.40;3.88;;;;;;;;;;5034168;28;20550;-86
2022/05/20 08:29:59;;;;;;;6.75;4.15;;;;;;;;;;5016021;28;20267;-87
2022/05/20 08:32:26;;;;;;;4.78;4.35;;;;;;;;;;5014817;28;20605;-86
2022/05/20 08:34:53;;;;;;;5.18;4.30;;;;;;;;;;5014037;28;20326;-84
2022/05/20 08:37:20;;;;;;;5.85;4.20;;;;;;;;;;5014495;28;20191;-85
2022/05/20 08:39:49;;;;;;;5.55;3.95;;;;;;;;;;5022040;28;20261;-85
2022/05/20 08:42:18;;;;;;;7.57;4.70;;;;;;;;;;5034748;28;20221;-85
2022/05/20 08:44:45;;;;;;;5.25;4.75;;;;;;;;;;5027483;28;20231;-85
2022/05/20 08:47:21;;;;;;;6.40;4.55;;;;;;;;;;5015391;28;20275;-85
2022/05/20 08:49:48;;;;;;;5.53;4.13;;;;;;;;;;5032432;28;20257;-85
2022/05/20 08:52:15;;;;;;;8.25;4.80;;;;;;;;;;5031466;28;20207;-85
2022/05/20 08:54:43;;;;;;;4.68;4.18;;;;;;;;;;5028772;28;20227;-86
2022/05/20 08:57:15;;;;;;;5.88;4.30;;;;;;;;;;5029560;28;20208;-86
2022/05/20 08:59:42;;;;;;;5.30;4.13;;;;;;;;;;5024851;28;20237;-86
2022/05/20 09:02:10;;;;;;;6.78;4.72;;;;;;;;;;5013756;28;20221;-85
2022/05/20 09:04:37;;;;;;;4.90;4.43;;;;;;;;;;5012740;28;20235;-84
2022/05/20 09:07:05;;;;;;;6.05;4.93;;;;;;;;;;5013737;28;20219;-84
2022/05/20 09:09:41;;;;;;;4.72;4.10;;;;;;;;;;5014275;28;20243;-84
2022/05/20 09:12:09;;;;;;;4.75;4.35;;;;;;;;;;5013964;28;20207;-83
2022/05/20 09:17:23;;;;;;;6.38;4.65;;;;;;;;;;5013886;28;20186;-84
2022/05/20 09:19:58;;;;;;;4.90;4.28;;;;;;;;;;5013713;28;20239;-85
2022/05/20 09:22:28;;;;;;;6.28;3.72;;;;;;;;;;5014525;28;20199;-84
2022/05/20 09:24:55;;;;;;;4.35;3.90;;;;;;;;;;5012935;28;20335;-84
2022/05/20 09:27:27;;;;;;;4.68;3.83;;;;;;;;;;5013897;28;20295;-84
2022/05/20 09:29:58;;;;;;;6.28;3.72;;;;;;;;;;5013902;28;20243;-84
2022/05/20 09:32:26;;;;;;;3.95;3.55;;;;;;;;;;5013396;28;20326;-84
2022/05/20 09:35:02;;;;;;;4.05;3.65;;;;;;;;;;5013517;28;20239;-84
2022/05/20 09:37:30;;;;;;;3.88;3.47;;;;;;;;;;5013364;28;20282;-83
2022/05/20 09:39:57;;;;;;;4.90;4.15;;;;;;;;;;5012882;28;20286;-84
2022/05/20 09:42:26;;;;;;;4.35;3.95;;;;;;;;;;5013940;28;20207;-84
2022/05/20 09:44:54;;;;;;;4.68;4.28;;;;;;;;;;5013091;28;20235;-84
2022/05/20 09:47:25;;;;;;;4.85;3.80;;;;;;;;;;5018319;28;20226;-85
2022/05/20 09:49:54;;;;;;;5.57;4.18;;;;;;;;;;5032654;28;20250;-84
2022/05/20 09:52:27;;;;;;;5.95;4.25;;;;;;;;;;5032631;28;20210;-84
2022/05/20 09:55:01;;;;;;;4.78;3.88;;;;;;;;;;5032263;28;20241;-84
2022/05/20 09:57:30;;;;;;;10.23;4.10;;;;;;;;;;5032702;28;20285;-84
2022/05/20 10:00:00;;;;;;;4.68;4.03;;;;;;;;;;5032411;28;20242;-84
2022/05/20 10:02:30;;;;;;;5.25;3.80;;;;;;;;;;5026954;28;20207;-84
2022/05/20 10:05:01;;;;;;;4.32;3.92;;;;;;;;;;5012603;28;20231;-84
2022/05/20 10:07:33;;;;;;;5.72;3.97;;;;;;;;;;5016593;28;20229;-84
2022/05/20 10:10:03;;;;;;;5.00;3.65;;;;;;;;;;5026697;28;20293;-80
2022/05/20 10:12:32;;;;;;;6.28;3.38;;;;;;;;;;5019559;28;20195;-85
2022/05/20 10:15:03;;;;;;;5.50;3.38;;;;;;;;;;5030623;28;20238;-85
2022/05/20 10:17:37;;;;;;;4.63;3.58;;;;;;;;;;5020875;28;20195;-85
2022/05/20 10:20:08;;;;;;;3.50;2.80;;;;;;;;;;5032234;28;20239;-84
2022/05/20 10:22:41;;;;;;;3.78;2.53;;;;;;;;;;5033045;28;20211;-85
2022/05/20 10:25:11;;;;;;;3.38;2.55;;;;;;;;;;5031802;28;20726;-85
2022/05/20 10:27:42;;;;;;;4.25;3.15;;;;;;;;;;5032239;28;20195;-84
2022/05/20 10:33:04;;;;;;;3.50;2.72;;;;;;;;;;5012499;28;20254;-85
2022/05/20 10:35:37;;;;;;;5.63;3.15;;;;;;;;;;5012622;28;20203;-83
2022/05/20 10:38:13;;;;;;;3.75;2.85;;;;;;;;;;5011979;28;20235;-83
2022/05/20 10:40:45;;;;;;;6.38;3.03;;;;;;;;;;5021888;28;20321;-84
2022/05/20 10:43:18;;;;;;;6.75;2.80;;;;;;;;;;5031837;28;20237;-84
2022/05/20 10:48:47;;;;;;;4.68;3.10;;;;;;;;;;5029399;28;20354;-85
2022/05/20 10:51:24;;;;;;;5.20;3.35;;;;;;;;;;5012479;28;20711;-86
2022/05/20 10:53:54;;;;;;;4.43;3.00;;;;;;;;;;5012072;28;20604;-83
2022/05/20 10:56:27;;;;;;;5.35;3.80;;;;;;;;;;5012321;28;20720;-84
2022/05/20 10:59:01;;;;;;;9.57;3.42;;;;;;;;;;5012520;28;20239;-84
2022/05/20 11:01:34;;;;;;;4.43;3.63;;;;;;;;;;5013090;28;20228;-83
2022/05/20 11:04:13;;;;;;;6.10;3.22;;;;;;;;;;5015525;28;20686;-85
2022/05/20 11:06:52;;;;;;;5.50;3.42;;;;;;;;;;5019709;28;20195;-84
2022/05/20 11:09:21;;;;;;;6.47;3.38;;;;;;;;;;5019319;28;20711;-84
2022/05/20 11:11:56;;;;;;;6.25;3.40;;;;;;;;;;5022197;28;20206;-82
2022/05/20 11:14:38;;;;;;;4.20;3.17;;;;;;;;;;5011466;28;20234;-84
2022/05/20 11:17:12;;;;;;;3.63;3.10;;;;;;;;;;5008319;28;20207;-84
2022/05/20 11:19:50;;;;;;;5.80;3.22;;;;;;;;;;5011397;28;20246;-84
2022/05/20 11:22:41;;;;;;;5.70;3.30;;;;;;;;;;5016969;28;20223;-82
2022/05/20 11:25:18;;;;;;;11.60;3.47;;;;;;;;;;5008285;28;20231;-81
2022/05/20 11:27:55;;;;;;;4.47;3.40;;;;;;;;;;5021945;28;20234;-80
2022/05/20 11:30:29;;;;;;;6.75;3.95;;;;;;;;;;5027635;28;20226;-88
2022/05/20 11:33:07;;;;;;;3.75;2.97;;;;;;;;;;5021191;28;20193;-88
2022/05/20 11:35:42;;;;;;;7.45;3.45;;;;;;;;;;5027320;28;20198;-86
2022/05/20 11:38:19;;;;;;;6.00;3.30;;;;;;;;;;5017500;28;20230;-85
2022/05/20 11:40:56;;;;;;;5.35;3.33;;;;;;;;;;5017026;28;20259;-86
2022/05/20 11:43:41;;;;;;;5.65;3.60;;;;;;;;;;5014810;28;20301;-82
2022/05/20 11:46:13;;;;;;;6.57;3.38;;;;;;;;;;5030115;28;20233;-80
2022/05/20 11:48:48;;;;;;;5.00;3.47;;;;;;;;;;5030011;28;20227;-82
2022/05/20 11:51:26;;;;;;;4.63;3.30;;;;;;;;;;5029730;28;20285;-79
2022/05/20 11:53:55;;;;;;;5.38;3.35;;;;;;;;;;5031946;28;20230;-81
2022/05/20 11:56:26;;;;;;;5.05;3.90;;;;;;;;;;5021268;28;20202;-81
2022/05/20 11:58:58;;;;;;;5.22;3.45;;;;;;;;;;5012887;28;20608;-82
2022/05/20 12:01:26;;;;;;;5.15;3.58;;;;;;;;;;5018224;28;20254;-80
2022/05/20 12:06:42;;;;;;;7.57;4.53;;;;;;;;;;5020138;28;20272;-80
2022/05/20 12:09:24;;;;;;;3.92;3.22;;;;;;;;;;5026843;28;20730;-80
2022/05/20 12:12:09;;;;;;;9.85;3.65;;;;;;;;;;5020809;28;20216;-79
2022/05/20 12:14:58;;;;;;;6.65;3.42;;;;;;;;;;5027069;28;20881;-79
2022/05/20 12:17:30;;;;;;;5.45;3.70;;;;;;;;;;5029506;28;20214;-79
2022/05/20 12:25:39;;;;;;;8.27;4.75;;;;;;;;;;5031193;28;20230;-79
2022/05/20 12:28:07;;;;;;;4.90;3.72;;;;;;;;;;5032508;28;20223;-76
2022/05/20 12:30:39;;;;;;;10.32;4.10;;;;;;;;;;5032273;28;20231;-82
2022/05/20 12:33:21;;;;;;;6.15;4.18;;;;;;;;;;5031054;28;20238;-84
2022/05/20 12:36:17;;;;;;;5.07;4.05;;;;;;;;;;5029332;28;20226;-85
2022/05/20 12:38:46;;;;;;;5.93;3.50;;;;;;;;;;5024706;28;20234;-85
2022/05/20 12:41:17;;;;;;;4.25;3.63;;;;;;;;;;5010408;28;20235;-85
2022/05/20 12:43:46;;;;;;;6.00;3.53;;;;;;;;;;5010162;28;20227;-86
2022/05/20 12:46:18;;;;;;;7.20;3.78;;;;;;;;;;5012262;28;20607;-86
2022/05/20 12:48:45;;;;;;;10.38;3.80;;;;;;;;;;5016993;28;20231;-86
2022/05/20 12:51:13;;;;;;;5.82;3.72;;;;;;;;;;5012928;28;20243;-87
2022/05/20 12:53:43;;;;;;;6.93;3.60;;;;;;;;;;5011062;28;20282;-86
2022/05/20 12:56:25;;;;;;;4.80;4.30;;;;;;;;;;5012457;28;20188;-86
2022/05/20 12:59:08;;;;;;;8.90;3.90;;;;;;;;;;5012134;28;20687;-88
2022/05/20 13:01:36;;;;;;;6.57;3.55;;;;;;;;;;5015910;28;20215;-86
2022/05/20 13:04:13;;;;;;;8.05;3.60;;;;;;;;;;5014515;28;20235;-85
2022/05/20 13:06:44;;;;;;;8.88;3.50;;;;;;;;;;5030013;28;20194;-88
2022/05/20 13:09:11;;;;;;;8.32;3.38;;;;;;;;;;5034148;28;20273;-85
2022/05/20 13:11:43;;;;;;;6.63;3.33;;;;;;;;;;5026007;28;20216;-88
2022/05/20 13:14:13;;;;;;;5.10;3.90;;;;;;;;;;5014296;28;20246;-87
2022/05/20 13:16:40;;;;;;;3.95;2.90;;;;;;;;;;5014666;28;20199;-88
2022/05/20 13:19:10;;;;;;;6.63;3.15;;;;;;;;;;5023469;28;20558;-86
2022/05/20 13:21:40;;;;;;;5.97;3.35;;;;;;;;;;5070621;23;20229;-86
2022/05/20 13:24:14;;;;;;;7.40;3.35;;;;;;;;;;5065403;28;20236;-86
2022/05/20 13:26:42;;;;;;;3.85;3.25;;;;;;;;;;5059369;28;20206;-87
2022/05/20 13:29:10;;;;;;;3.88;3.33;;;;;;;;;;5054016;28;20594;-89
2022/05/20 13:31:37;;;;;;;5.38;3.20;;;;;;;;;;5054629;28;20250;-87
2022/05/20 13:34:04;;;;;;;5.05;3.38;;;;;;;;;;5042148;28;20547;-88
2022/05/20 13:36:34;;;;;;;4.10;3.00;;;;;;;;;;5048875;28;20252;-87
2022/05/20 13:39:03;;;;;;;5.93;3.40;;;;;;;;;;5052992;28;20256;-89
2022/05/20 13:41:32;;;;;;;6.63;3.33;;;;;;;;;;5053223;28;20614;-90
2022/05/20 13:44:02;;;;;;;8.00;5.28;;;;;;;;;;5051655;28;20237;-90
2022/05/20 13:49:17;;;;;;;7.57;3.55;;;;;;;;;;5032884;28;20269;-90
2022/05/20 13:51:46;;;;;;;4.85;3.03;;;;;;;;;;5033653;28;20222;-90
2022/05/20 13:54:15;;;;;;;9.70;3.70;;;;;;;;;;5032447;28;20302;-88
2022/05/20 13:56:44;;;;;;;5.53;3.47;;;;;;;;;;5033344;28;20213;-87
2022/05/20 13:59:21;;;;;;;8.23;4.00;;;;;;;;;;5033532;28;20317;-88
2022/05/20 14:01:51;;;;;;;4.30;3.25;;;;;;;;;;5033457;28;20305;-88
2022/05/20 14:04:19;;;;;;;6.25;3.25;;;;;;;;;;5032745;28;20834;-90
2022/05/20 14:06:46;;;;;;;4.80;3.47;;;;;;;;;;5032572;28;20213;-88
2022/05/20 14:09:14;;;;;;;4.55;3.38;;;;;;;;;;5032340;28;20238;-88
2022/05/20 14:11:43;;;;;;;4.65;3.42;;;;;;;;;;5032845;28;20231;-89
2022/05/20 14:14:14;;;;;;;5.57;3.10;;;;;;;;;;5032126;28;20234;-88
2022/05/20 14:16:44;;;;;;;5.43;3.78;;;;;;;;;;5032126;28;20195;-89
2022/05/20 14:19:16;;;;;;;9.65;3.30;;;;;;;;;;5032065;28;20211;-84
2022/05/20 14:21:43;;;;;;;8.88;3.10;;;;;;;;;;5032269;28;20235;-84
2022/05/20 14:24:13;;;;;;;6.43;2.97;;;;;;;;;;5031983;28;20246;-85
2022/05/20 14:26:47;;;;;;;9.25;3.67;;;;;;;;;;5028950;28;20229;-88
2022/05/20 14:29:16;;;;;;;9.73;4.07;;;;;;;;;;5018886;28;20268;-89
2022/05/20 14:31:47;;;;;;;7.13;3.80;;;;;;;;;;5014822;28;20223;-88
2022/05/20 14:34:16;;;;;;;7.68;3.70;;;;;;;;;;5015075;28;20631;-87
2022/05/20 14:36:44;;;;;;;7.55;4.18;;;;;;;;;;5014670;28;20303;-87
2022/05/20 14:39:13;;;;;;;6.88;4.00;;;;;;;;;;5013989;28;20239;-86
2022/05/20 14:41:42;;;;;;;5.68;3.95;;;;;;;;;;5021462;28;20235;-87
2022/05/20 14:44:10;;;;;;;6.32;4.10;;;;;;;;;;5048449;28;20650;-88
2022/05/20 14:49:27;;;;;;;5.18;3.92;;;;;;;;;;5032638;28;20899;-87
2022/05/20 14:51:58;;;;;;;7.63;4.28;;;;;;;;;;5012192;28;20242;-85
2022/05/20 14:54:35;;;;;;;8.38;4.68;;;;;;;;;;5011536;28;20727;-87
2022/05/20 14:57:17;;;;;;;5.75;3.80;;;;;;;;;;5011776;28;20195;-87
2022/05/20 15:00:25;;;;;;;6.30;4.20;;;;;;;;;;5015091;28;20246;-88
2022/05/20 15:02:53;;;;;;;9.13;4.00;;;;;;;;;;4932024;29;20218;-86
2022/05/20 15:05:22;;;;;;;4.65;3.50;;;;;;;;;;4999824;28;20649;-87
2022/05/20 15:07:55;;;;;;;6.05;3.35;;;;;;;;;;5011507;28;20660;-86
2022/05/20 15:10:22;;;;;;;7.65;3.70;;;;;;;;;;5012164;28;20234;-87
2022/05/20 15:12:59;;;;;;;5.00;3.80;;;;;;;;;;5021988;28;20202;-86
2022/05/20 15:15:26;;;;;;;6.85;3.80;;;;;;;;;;5028164;28;20302;-86
2022/05/20 15:17:57;;;;;;;5.03;3.85;;;;;;;;;;5032098;28;20195;-86
2022/05/20 15:20:26;;;;;;;6.30;4.18;;;;;;;;;;5031003;28;20621;-86
2022/05/20 15:22:53;;;;;;;7.80;6.43;;;;;;;;;;5031516;28;20222;-85
2022/05/20 15:25:20;;;;;;;7.82;4.28;;;;;;;;;;5031171;28;20202;-87
2022/05/20 15:27:47;;;;;;;4.55;3.63;;;;;;;;;;5031365;28;20262;-86
2022/05/20 15:30:15;;;;;;;8.27;4.30;;;;;;;;;;5031085;28;20647;-85
2022/05/20 15:35:28;;;;;;;10.10;4.63;;;;;;;;;;5030978;28;20333;-86
2022/05/20 15:37:55;;;;;;;8.95;4.18;;;;;;;;;;5031047;28;20210;-87
2022/05/20 15:40:24;;;;;;;5.38;4.07;;;;;;;;;;5031817;28;20237;-87